Due to severe server failure at the provider, not all demo sites are operational. Will take some days to rebuilt everything.

Demonstration site - Click on the  for more information

This is an optional block. Switch it on/off in your settings-file: $SITE['bannerTop'] = false; or $SITE['bannerBottom'] = false;

You can display ads, any other important text or photo’s using text / html or PHP code.

You can place one or more at the top and or bottom and it can all be different for content / size .



Visit our other weather sites:

Template documentation
and downloads

And another site



Nearby METAR Reports

   
EBAW - Antwerp
Updated: 16-04-2021 19:50
Clear  
Clear  
   Wind: NNE 14.8 km/h
Wind: NNE 14.8 km/h
Temperature: 10°C
Wind Chill: 8°C
Dew Point: -1°C
Humidity: 47%
Barometer: 1026 hPa
Visibility: More than 10 km
Cloud details: Clear ft
EBAW 161750Z 02008KT 350V050 CAVOK 10/M01 Q1026 NOSIG
EBLG - Liège
Updated: 16-04-2021 19:50
Clear  
Clear  
   Wind: NNE 11.1 km/h
Wind: NNE 11.1 km/h
Temperature: 9°C
Wind Chill: 7°C
Dew Point: -2°C
Humidity: 46%
Barometer: 1025 hPa
Visibility: More than 10 km
Cloud details: Clear ft
EBLG 161750Z 03006KT CAVOK 09/M02 Q1025 NOSIG
EBCV - Mons/Bergen
Updated: 16-04-2021 19:55
Mostly Cloudy  
Mostly Cloudy  
   Wind: North 16.7 km/h
Wind: North 16.7 km/h
Temperature: 9°C
Wind Chill: 7°C
Dew Point: 2°C
Humidity: 62%
Barometer: 1026 hPa
Clouds: Mostly Cloudy
Visibility: More than 10 km
Cloud details: Few Clouds 6300 ft,
Mostly Cloudy 13000 ft
EBCV 161755Z AUTO 36009KT 9999 FEW063/// BKN130/// 09/02 Q1026 BLU
EHBK - Maastricht
Updated: 16-04-2021 19:55
Partly Cloudy  
Partly Cloudy  
   Wind: NE 13 km/h
Wind: NE 13 km/h
Temperature: 9°C
Wind Chill: 7°C
Dew Point: -1°C
Humidity: 50%
Barometer: 1025 hPa
Clouds: Partly Cloudy
Visibility: More than 10 km
Cloud details: Partly Cloudy ft
EHBK 161755Z AUTO 05007KT 9999 NSC 09/M01 Q1025 NOSIG
ELLX - Luxemburg
Updated: 16-04-2021 19:50
Partly Cloudy  
Partly Cloudy  
   Wind: ENE 14.8 km/h
Wind: ENE 14.8 km/h
Temperature: 6°C
Wind Chill: 3°C
Dew Point: -1°C
Humidity: 61%
Barometer: 1024 hPa
Clouds: Partly Cloudy
Visibility: More than 10 km
Cloud details: Few Clouds 3300 ft,
Partly Cloudy 4400 ft
ELLX 161750Z 06008KT 9999 FEW033 SCT044 06/M01 Q1024 NOSIG
EBOS - Oostende
Updated: 16-04-2021 19:50
Few Clouds  
Few Clouds  
   Wind: NNE 20.4 km/h
Wind: NNE 20.4 km/h
Temperature: 7°C
Wind Chill: 3°C
Dew Point: 4°C
Humidity: 81%
Barometer: 1029 hPa
Clouds: Few Clouds
Visibility: More than 10 km
Cloud details: Few Clouds 1500 ft
EBOS 161750Z 02011KT 9999 FEW015 07/04 Q1029 NOSIG

Script developed by  Saratoga-weather.org Adapted for the template by  Weerstation Leuven

This is an optional block. Switch it on/off in your settings-file: $SITE['bannerTop'] = false; or $SITE['bannerBottom'] = false;

You can display ads, any other important text or photo’s using text / html or PHP code.

You can place one or more at the top and or bottom and it can all be different for content / size .